createdAt,value
2018-02-14T04:17:25.749Z,101385.15
2018-02-14T04:19:51.653Z,101385.94
2018-02-14T04:22:17.518Z,101397.85
2018-02-14T04:24:43.493Z,101396.22
2018-02-14T04:27:09.360Z,101387.80
2018-02-14T04:29:35.232Z,101395.48
2018-02-14T04:32:01.117Z,101407.34
2018-02-14T04:34:27.013Z,101403.50
2018-02-14T04:36:52.857Z,101410.30
2018-02-14T04:39:18.700Z,101409.81
2018-02-14T04:41:44.576Z,101408.44
2018-02-14T04:44:10.416Z,101411.00
2018-02-14T04:46:36.257Z,101408.88
2018-02-14T04:49:02.149Z,101400.72
2018-02-14T04:51:27.988Z,101410.02
2018-02-14T04:53:53.885Z,101413.86
2018-02-14T04:56:19.795Z,101412.44
2018-02-14T04:58:45.641Z,101416.28
2018-02-14T05:01:11.516Z,101426.16
2018-02-14T05:03:37.361Z,101423.16
2018-02-14T05:06:03.210Z,101416.37
2018-02-14T05:08:29.115Z,101418.88
2018-02-14T05:10:54.948Z,101422.67
2018-02-14T05:13:20.848Z,101418.78
2018-02-14T05:15:46.733Z,101431.13
2018-02-14T05:18:12.604Z,101433.34
2018-02-14T05:20:38.531Z,101426.52
2018-02-14T05:23:04.415Z,101431.72
2018-02-14T05:25:30.256Z,101432.70
2018-02-14T05:27:56.101Z,101439.40
2018-02-14T05:30:22.068Z,101445.35
2018-02-14T05:32:48.017Z,101441.91
2018-02-14T05:35:13.857Z,101448.80
2018-02-14T05:37:39.744Z,101455.67
2018-02-14T05:40:05.586Z,101457.30
2018-02-14T05:42:31.429Z,101456.81
2018-02-14T05:44:57.306Z,101456.38
2018-02-14T05:47:23.145Z,101467.94
2018-02-14T05:49:48.987Z,101467.94
2018-02-14T05:52:14.946Z,101470.05
2018-02-14T05:54:40.898Z,101472.46
2018-02-14T05:57:06.819Z,101482.50
2018-02-14T05:59:32.789Z,101491.46
2018-02-14T06:01:58.699Z,101490.03
2018-02-14T06:04:24.540Z,101489.99
2018-02-14T06:06:50.423Z,101497.22
2018-02-14T06:09:16.350Z,101502.62
2018-02-14T06:11:42.191Z,101501.70
2018-02-14T06:14:08.019Z,101505.04
2018-02-14T06:16:33.900Z,101505.78
2018-02-14T06:18:59.748Z,101505.97
2018-02-14T06:21:25.576Z,101513.59
2018-02-14T06:23:51.461Z,101509.52
2018-02-14T06:26:17.300Z,101516.16
2018-02-14T06:28:43.138Z,101517.53
2018-02-14T06:31:09.053Z,101518.46
2018-02-14T06:33:34.888Z,101523.58
2018-02-14T06:36:00.733Z,101527.58
2018-02-14T06:38:26.615Z,101528.94
2018-02-14T06:40:52.608Z,101528.78
2018-02-14T06:43:18.503Z,101537.25
2018-02-14T06:45:44.372Z,101534.13
2018-02-14T06:48:10.221Z,101540.38
2018-02-14T06:50:36.091Z,101545.30
2018-02-14T06:53:01.957Z,101550.80
2018-02-14T06:55:27.808Z,101540.76
2018-02-14T06:57:53.692Z,101541.52
2018-02-14T07:00:19.541Z,101551.36
2018-02-14T07:02:45.384Z,101551.78
2018-02-14T07:05:11.292Z,101559.80
2018-02-14T07:07:37.129Z,101553.84
2018-02-14T07:10:03.005Z,101564.98
2018-02-14T07:12:28.900Z,101562.08
2018-02-14T07:14:54.764Z,101566.05
2018-02-14T07:17:20.661Z,101565.80
2018-02-14T07:19:46.505Z,101567.70
2018-02-14T07:22:12.353Z,101569.17
2018-02-14T07:24:38.241Z,101574.94
2018-02-14T07:27:04.089Z,101573.07
2018-02-14T07:29:30.036Z,101577.14
2018-02-14T07:31:55.933Z,101587.74
2018-02-14T07:34:21.792Z,101576.88
2018-02-14T07:36:47.633Z,101576.28
2018-02-14T07:39:13.562Z,101577.04
2018-02-14T07:41:39.473Z,101587.13
2018-02-14T07:44:05.308Z,101580.73
2018-02-14T07:46:31.198Z,101574.84
2018-02-14T07:48:57.043Z,101585.31
2018-02-14T07:51:22.884Z,101585.73
2018-02-14T07:53:48.761Z,101595.36
2018-02-14T07:56:14.629Z,101595.02
2018-02-14T07:58:40.518Z,101588.55
2018-02-14T08:01:06.441Z,101599.51
2018-02-14T08:03:32.365Z,101598.06
2018-02-14T08:05:58.217Z,101600.25
2018-02-14T08:08:24.205Z,101604.64
2018-02-14T08:10:50.072Z,101607.78
2018-02-14T08:13:15.918Z,101606.20
2018-02-14T08:15:41.808Z,101600.30
2018-02-14T08:18:07.669Z,101604.23
2018-02-14T08:20:33.509Z,101605.57
2018-02-14T08:22:59.394Z,101608.95
2018-02-14T08:25:25.253Z,101603.30
2018-02-14T08:27:51.147Z,101611.44
2018-02-14T08:30:16.988Z,101610.02
2018-02-14T08:32:42.819Z,101603.95
2018-02-14T08:35:08.743Z,101606.91
2018-02-14T08:37:34.621Z,101616.31
2018-02-14T08:40:00.505Z,101606.77
2018-02-14T08:42:26.389Z,101604.04
2018-02-14T08:44:52.245Z,101606.92
2018-02-14T08:47:18.145Z,101611.55
2018-02-14T08:49:43.987Z,101607.55
2018-02-14T08:52:09.853Z,101608.19
2018-02-14T08:54:35.741Z,101607.11
2018-02-14T08:57:01.583Z,101615.06
2018-02-14T08:59:27.481Z,101608.39
2018-02-14T09:01:53.388Z,101613.73
2018-02-14T09:04:19.237Z,101613.11
2018-02-14T09:06:45.081Z,101620.84
2018-02-14T09:09:10.956Z,101620.50
2018-02-14T09:11:36.845Z,101620.20
2018-02-14T09:14:02.692Z,101634.52
2018-02-14T09:16:28.570Z,101638.98
2018-02-14T09:18:54.456Z,101638.02
2018-02-14T09:21:20.303Z,101637.49
2018-02-14T09:23:46.175Z,101639.30
2018-02-14T09:26:12.051Z,101647.69
2018-02-14T09:28:37.895Z,101647.34
2018-02-14T09:31:03.732Z,101639.87
2018-02-14T09:33:29.608Z,101649.98
2018-02-14T09:35:55.461Z,101646.98
2018-02-14T09:38:21.332Z,101650.91
2018-02-14T09:40:47.216Z,101649.33
2018-02-14T09:43:13.060Z,101646.30
2018-02-14T09:45:38.978Z,101657.63
2018-02-14T09:48:04.875Z,101656.23
2018-02-14T09:50:30.733Z,101655.61
2018-02-14T09:52:56.572Z,101661.66
2018-02-14T09:55:22.456Z,101659.76
2018-02-14T09:57:48.428Z,101661.23
2018-02-14T10:00:14.274Z,101653.89
2018-02-14T10:02:40.146Z,101663.50
2018-02-14T10:05:06.118Z,101661.67
2018-02-14T10:07:31.969Z,101662.89
2018-02-14T10:09:57.811Z,101667.11
2018-02-14T10:12:23.683Z,101669.97
2018-02-14T10:14:49.525Z,101668.86
2018-02-14T10:17:15.406Z,101675.19
2018-02-14T10:19:41.260Z,101675.71
2018-02-14T10:22:07.148Z,101678.47
2018-02-14T10:24:32.996Z,101671.80
2018-02-14T10:26:58.845Z,101679.99
2018-02-14T10:29:24.745Z,101674.16
2018-02-14T10:31:50.589Z,101673.69
2018-02-14T10:34:16.437Z,101673.48
2018-02-14T10:36:42.325Z,101675.15
2018-02-14T10:39:08.204Z,101682.53
2018-02-14T10:41:34.108Z,101677.94
2018-02-14T10:43:59.993Z,101678.80
2018-02-14T10:46:25.849Z,101681.73
2018-02-14T10:48:51.731Z,101685.09
2018-02-14T10:51:17.594Z,101683.63
2018-02-14T10:53:43.442Z,101690.86
2018-02-14T10:56:09.457Z,101686.94
2018-02-14T10:58:35.300Z,101690.47
2018-02-14T11:01:01.164Z,101688.81
2018-02-14T11:03:33.081Z,101683.12
2018-02-14T11:06:05.006Z,101687.30
2018-02-14T11:08:30.936Z,101676.16
2018-02-14T11:10:56.816Z,101688.34
2018-02-14T11:13:22.653Z,101680.75
2018-02-14T11:15:48.492Z,101675.70
2018-02-14T11:18:14.384Z,101681.55
2018-02-14T11:20:40.225Z,101678.70
2018-02-14T11:23:06.065Z,101674.20
2018-02-14T11:25:31.961Z,101674.02
2018-02-14T11:27:57.812Z,101671.23
2018-02-14T11:30:23.648Z,101673.69
2018-02-14T11:32:49.537Z,101670.99
2018-02-14T11:35:15.413Z,101681.42
2018-02-14T11:37:41.253Z,101674.45
2018-02-14T11:40:07.189Z,101673.09
2018-02-14T11:42:33.024Z,101675.23
2018-02-14T11:44:58.869Z,101670.45
2018-02-14T11:47:24.840Z,101664.41
2018-02-14T11:49:50.697Z,101673.55
2018-02-14T11:52:16.596Z,101670.95
2018-02-14T11:54:42.587Z,101675.80
2018-02-14T11:57:08.423Z,101673.70
2018-02-14T11:59:34.297Z,101680.78
2018-02-14T12:02:00.202Z,101680.89
2018-02-14T12:04:26.039Z,101677.96
2018-02-14T12:06:52.035Z,101685.07
2018-02-14T12:09:18.018Z,101688.72
2018-02-14T12:11:43.852Z,101687.15
2018-02-14T12:14:09.710Z,101685.13
2018-02-14T12:16:35.596Z,101689.58
2018-02-14T12:19:01.593Z,101690.62
2018-02-14T12:21:27.436Z,101686.36
2018-02-14T12:23:53.365Z,101683.81
2018-02-14T12:26:19.272Z,101681.66
2018-02-14T12:28:45.148Z,101678.61
2018-02-14T12:31:11.029Z,101684.28
2018-02-14T12:33:36.875Z,101681.23
2018-02-14T12:36:02.761Z,101678.16
2018-02-14T12:38:28.653Z,101676.42
2018-02-14T12:40:54.493Z,101676.35
2018-02-14T12:43:20.404Z,101672.38
2018-02-14T12:45:46.288Z,101676.69
2018-02-14T12:48:12.137Z,101674.75
2018-02-14T12:50:37.967Z,101682.01
2018-02-14T12:53:03.855Z,101684.14
2018-02-14T12:55:29.695Z,101681.57
2018-02-14T12:57:55.583Z,101681.16
2018-02-14T13:00:21.468Z,101676.38
2018-02-14T13:02:47.301Z,101678.55
2018-02-14T13:05:13.185Z,101681.13
2018-02-14T13:07:39.132Z,101684.61
2018-02-14T13:10:04.977Z,101683.25
2018-02-14T13:12:30.811Z,101686.22
2018-02-14T13:14:56.688Z,101678.75
2018-02-14T13:17:22.537Z,101683.05
2018-02-14T13:19:48.397Z,101684.74
2018-02-14T13:22:14.320Z,101681.26
2018-02-14T13:24:40.159Z,101689.17
2018-02-14T13:27:06.009Z,101685.69
2018-02-14T13:29:31.905Z,101678.30
2018-02-14T13:31:57.740Z,101670.06
2018-02-14T13:34:23.585Z,101671.81
2018-02-14T13:36:49.507Z,101663.08
2018-02-14T13:39:15.344Z,101661.73
2018-02-14T13:41:41.265Z,101659.98
2018-02-14T13:44:07.104Z,101666.92
2018-02-14T13:46:32.945Z,101659.51
2018-02-14T13:48:58.859Z,101661.66
2018-02-14T13:51:24.710Z,101663.37
2018-02-14T13:53:50.561Z,101657.20
2018-02-14T13:56:16.452Z,101665.02
2018-02-14T13:58:42.349Z,101661.47
2018-02-14T14:01:08.210Z,101666.70
2018-02-14T14:03:34.100Z,101666.16
2018-02-14T14:05:59.956Z,101665.62
2018-02-14T14:08:25.793Z,101664.16
2018-02-14T14:10:51.713Z,101665.35
2018-02-14T14:13:17.584Z,101670.45
2018-02-14T14:15:43.430Z,101678.63
2018-02-14T14:18:09.303Z,101679.88
2018-02-14T14:20:35.158Z,101680.64
2018-02-14T14:23:01.062Z,101684.42
2018-02-14T14:25:26.952Z,101687.34
2018-02-14T14:27:52.809Z,101694.61
2018-02-14T14:30:18.697Z,101690.61
2018-02-14T14:32:44.593Z,101697.56
2018-02-14T14:35:10.450Z,101700.94
2018-02-14T14:37:36.466Z,101699.94
2018-02-14T14:40:02.321Z,101697.14
2018-02-14T14:42:28.165Z,101700.48
2018-02-14T14:44:54.104Z,101711.63
2018-02-14T14:47:19.954Z,101710.50
2018-02-14T14:49:45.831Z,101705.93
2018-02-14T14:52:11.699Z,101710.47
2018-02-14T14:54:37.564Z,101714.17
2018-02-14T14:57:03.525Z,101711.39
2018-02-14T14:59:29.415Z,101718.14
2018-02-14T15:01:55.247Z,101723.98
2018-02-14T15:04:21.084Z,101724.58
2018-02-14T15:06:46.962Z,101723.92
2018-02-14T15:09:12.791Z,101725.06
2018-02-14T15:11:38.669Z,101726.21
2018-02-14T15:14:04.503Z,101734.33
2018-02-14T15:16:30.346Z,101728.69
2018-02-14T15:18:56.223Z,101726.11
2018-02-14T15:21:22.065Z,101732.16
2018-02-14T15:23:47.909Z,101731.61
2018-02-14T15:26:13.803Z,101740.93
2018-02-14T15:28:39.713Z,101733.35
2018-02-14T15:31:05.568Z,101739.17
2018-02-14T15:33:31.456Z,101744.99
2018-02-14T15:35:57.302Z,101741.60
2018-02-14T15:38:23.140Z,101743.09
2018-02-14T15:40:49.055Z,101745.80
2018-02-14T15:43:14.929Z,101743.28
2018-02-14T15:45:40.826Z,101743.78
2018-02-14T15:48:06.675Z,101745.23
2018-02-14T15:50:32.522Z,101738.42
2018-02-14T15:52:58.399Z,101738.63
2018-02-14T15:55:24.274Z,101737.92
2018-02-14T15:57:50.117Z,101750.09
2018-02-14T16:00:16.077Z,101741.48
2018-02-14T16:02:41.918Z,101746.20
2018-02-14T16:05:07.816Z,101742.35
2018-02-14T16:07:33.705Z,101743.29
2018-02-14T16:09:59.721Z,101741.58
2018-02-14T16:12:25.577Z,101738.95
2018-02-14T16:14:51.444Z,101745.94
2018-02-14T16:17:17.331Z,101752.44
2018-02-14T16:19:43.205Z,101748.70
2018-02-14T16:22:09.049Z,101756.64
2018-02-14T16:24:34.939Z,101756.31
2018-02-14T16:27:00.789Z,101763.52
2018-02-14T16:29:26.628Z,101759.67
2018-02-14T16:31:52.529Z,101760.11
2018-02-14T16:34:18.368Z,101757.48
2018-02-14T16:36:44.226Z,101766.64
2018-02-14T16:39:10.121Z,101754.95
2018-02-14T16:41:36.064Z,101764.10
2018-02-14T16:44:01.907Z,101771.23
2018-02-14T16:46:27.779Z,101758.84
2018-02-14T16:48:53.621Z,101760.53
2018-02-14T16:51:19.507Z,101756.75
2018-02-14T16:53:45.430Z,101762.03
2018-02-14T16:56:11.272Z,101763.19
2018-02-14T16:58:37.229Z,101754.97
2018-02-14T17:01:03.118Z,101758.70
2018-02-14T17:03:28.992Z,101758.17
2018-02-14T17:05:54.885Z,101759.64
2018-02-14T17:08:21.132Z,101768.54
2018-02-14T17:10:46.979Z,101769.33
2018-02-14T17:13:12.862Z,101778.70
2018-02-14T17:15:38.716Z,101776.53
2018-02-14T17:18:04.628Z,101776.29
2018-02-14T17:20:30.528Z,101776.59
2018-02-14T17:22:56.369Z,101781.99
2018-02-14T17:25:22.224Z,101787.33
2018-02-14T17:27:48.111Z,101790.44
2018-02-14T17:30:13.957Z,101803.40
2018-02-14T17:32:39.848Z,101804.74
2018-02-14T17:35:05.693Z,101802.17
2018-02-14T17:37:31.533Z,101804.25
2018-02-14T17:39:57.424Z,101812.28
2018-02-14T17:42:23.276Z,101810.59
2018-02-14T17:44:49.161Z,101809.96
2018-02-14T17:47:15.014Z,101811.95
2018-02-14T17:49:40.873Z,101813.56
2018-02-14T17:52:06.800Z,101813.56
2018-02-14T17:54:32.643Z,101806.45
2018-02-14T17:56:58.563Z,101816.46
2018-02-14T17:59:24.462Z,101822.16
2018-02-14T18:01:50.300Z,101815.77
2018-02-14T18:04:16.139Z,101812.38
2018-02-14T18:06:42.064Z,101815.92
2018-02-14T18:09:07.905Z,101818.62
2018-02-14T18:11:33.865Z,101816.26
2018-02-14T18:13:59.754Z,101821.54
2018-02-14T18:16:25.701Z,101828.14
2018-02-14T18:18:51.549Z,101829.99
2018-02-14T18:21:17.442Z,101833.73
2018-02-14T18:23:43.292Z,101836.19
2018-02-14T18:26:09.160Z,101838.44
2018-02-14T18:28:35.040Z,101830.84
2018-02-14T18:31:00.962Z,101831.64
2018-02-14T18:33:26.805Z,101837.52
2018-02-14T18:35:52.636Z,101842.47
2018-02-14T18:38:18.549Z,101848.02
2018-02-14T18:40:44.389Z,101853.16
2018-02-14T18:43:10.229Z,101852.64
2018-02-14T18:45:36.124Z,101852.64
2018-02-14T18:48:01.981Z,101858.71
2018-02-14T18:50:27.828Z,101864.66
2018-02-14T18:52:53.754Z,101861.00
2018-02-14T18:55:19.605Z,101856.13
2018-02-14T18:57:45.451Z,101866.14
2018-02-14T19:00:11.452Z,101871.92
2018-02-14T19:02:37.311Z,101868.91
2018-02-14T19:05:03.169Z,101867.30
2018-02-14T19:07:29.052Z,101861.08
2018-02-14T19:09:54.901Z,101856.49
2018-02-14T19:12:20.757Z,101857.02
2018-02-14T19:14:46.632Z,101864.75
2018-02-14T19:17:12.487Z,101866.88
2018-02-14T19:19:38.472Z,101868.03
2018-02-14T19:22:04.322Z,101867.91
2018-02-14T19:24:30.170Z,101876.36
2018-02-14T19:26:56.439Z,101884.87
2018-02-14T19:29:22.288Z,101878.76
2018-02-14T19:31:48.129Z,101880.41
2018-02-14T19:34:14.021Z,101879.36
2018-02-14T19:36:39.865Z,101883.09
2018-02-14T19:39:06.087Z,101871.30
2018-02-14T19:41:32.045Z,101883.95
2018-02-14T19:43:58.004Z,101890.66
2018-02-14T19:46:23.860Z,101895.77
2018-02-14T19:48:49.741Z,101894.52
2018-02-14T19:51:15.815Z,101903.12
2018-02-14T19:53:41.757Z,101901.71
2018-02-14T19:56:07.843Z,101897.89
2018-02-14T19:58:33.679Z,101907.26
2018-02-14T20:00:59.946Z,101904.37
2018-02-14T20:03:26.308Z,101913.70
2018-02-14T20:05:52.189Z,101906.20
2018-02-14T20:08:18.029Z,101904.03
2018-02-14T20:10:43.895Z,101898.45
2018-02-14T20:13:09.756Z,101901.47
2018-02-14T20:15:36.184Z,101896.84
2018-02-14T20:18:02.025Z,101895.05
2018-02-14T20:20:27.909Z,101903.72
2018-02-14T20:22:53.748Z,101905.67
2018-02-14T20:25:19.692Z,101905.05
2018-02-14T20:27:45.889Z,101905.07
2018-02-14T20:30:11.766Z,101900.12
2018-02-14T20:32:37.658Z,101897.11
2018-02-14T20:35:03.535Z,101893.53
2018-02-14T20:37:29.384Z,101897.99
2018-02-14T20:39:55.581Z,101895.65
2018-02-14T20:42:21.469Z,101898.47
2018-02-14T20:44:47.317Z,101890.53
2018-02-14T20:47:13.221Z,101892.90
2018-02-14T20:49:39.511Z,101891.84
2018-02-14T20:52:05.364Z,101894.77
2018-02-14T20:54:31.235Z,101896.58
2018-02-14T20:56:57.125Z,101902.77
2018-02-14T20:59:22.976Z,101900.80
2018-02-14T21:01:48.928Z,101894.54
2018-02-14T21:04:18.607Z,101893.80
2018-02-14T21:06:44.472Z,101905.56
2018-02-14T21:09:10.410Z,101886.00
2018-02-14T21:11:36.303Z,101899.83
2018-02-14T21:14:02.221Z,101896.51
2018-02-14T21:16:28.089Z,101898.80
2018-02-14T21:18:53.968Z,101890.33
2018-02-14T21:21:19.901Z,101895.12
2018-02-14T21:23:46.252Z,101897.77
2018-02-14T21:26:12.128Z,101895.67
2018-02-14T21:28:38.040Z,101899.09
2018-02-14T21:31:04.245Z,101903.38
2018-02-14T21:33:30.180Z,101902.52
2018-02-14T21:35:56.036Z,101899.09
2018-02-14T21:38:21.899Z,101898.33
2018-02-14T21:40:47.887Z,101894.02
2018-02-14T21:43:13.773Z,101895.34
2018-02-14T21:45:39.644Z,101899.69
2018-02-14T21:48:05.561Z,101890.37
2018-02-14T21:50:31.513Z,101893.39
2018-02-14T21:52:57.520Z,101891.21
2018-02-14T21:55:23.409Z,101897.70
2018-02-14T21:57:49.289Z,101900.72
2018-02-14T22:00:15.277Z,101895.09
2018-02-14T22:02:41.152Z,101892.55
2018-02-14T22:05:07.107Z,101898.66
2018-02-14T22:07:33.011Z,101888.67
2018-02-14T22:09:58.892Z,101883.52
2018-02-14T22:12:24.829Z,101880.09
2018-02-14T22:14:50.700Z,101881.70
2018-02-14T22:17:17.393Z,101880.45
2018-02-14T22:19:43.307Z,101870.54
2018-02-14T22:22:09.173Z,101867.48
2018-02-14T22:24:35.050Z,101858.89
2018-02-14T22:27:01.068Z,101853.77
2018-02-14T22:29:26.941Z,101859.00
2018-02-14T22:31:52.812Z,101852.95
2018-02-14T22:34:18.753Z,101846.52
2018-02-14T22:36:44.620Z,101854.25
2018-02-14T22:39:10.529Z,101856.83
2018-02-14T22:41:36.401Z,101855.02
2018-02-14T22:44:02.325Z,101855.87
2018-02-14T22:46:28.193Z,101854.21
2018-02-14T22:48:54.087Z,101850.82
2018-02-14T22:51:19.960Z,101855.98
2018-02-14T22:53:45.884Z,101866.23
2018-02-14T22:56:11.752Z,101869.10
2018-02-14T22:58:37.640Z,101867.37
2018-02-14T23:01:03.556Z,101857.53
2018-02-14T23:03:29.469Z,101860.92
2018-02-14T23:05:55.369Z,101861.25
2018-02-14T23:08:21.237Z,101860.08
2018-02-14T23:10:47.156Z,101854.84
2018-02-14T23:13:13.036Z,101857.45
2018-02-14T23:15:38.960Z,101858.34
2018-02-14T23:18:04.834Z,101861.36
2018-02-14T23:20:30.708Z,101851.48
2018-02-14T23:22:56.628Z,101850.71
2018-02-14T23:25:22.492Z,101846.87
2018-02-14T23:27:48.364Z,101837.41
2018-02-14T23:30:14.300Z,101847.31
2018-02-14T23:32:40.169Z,101841.69
2018-02-14T23:35:06.032Z,101848.50
2018-02-14T23:37:31.949Z,101835.53
2018-02-14T23:39:57.810Z,101839.91
2018-02-14T23:42:23.681Z,101830.78
2018-02-14T23:44:49.696Z,101836.01
2018-02-14T23:47:15.567Z,101831.59
2018-02-14T23:49:41.434Z,101837.16
2018-02-14T23:52:07.337Z,101827.75
2018-02-14T23:54:33.248Z,101828.64
2018-02-14T23:56:59.173Z,101829.05
2018-02-14T23:59:25.039Z,101838.55
